createdAt,value
2022-09-12T00:03:03.650Z,13.54
2022-09-12T00:08:06.607Z,13.42
2022-09-12T00:13:10.715Z,13.38
2022-09-12T00:18:16.811Z,13.49
2022-09-12T00:23:19.793Z,13.46
2022-09-12T00:28:22.718Z,13.45
2022-09-12T00:33:27.202Z,13.50
2022-09-12T00:38:30.296Z,13.38
2022-09-12T00:43:41.691Z,13.37
2022-09-12T00:48:51.495Z,13.39
2022-09-12T00:53:56.227Z,13.27
2022-09-12T00:59:03.653Z,13.29
2022-09-12T01:04:08.352Z,13.30
2022-09-12T01:09:14.444Z,13.19
2022-09-12T01:14:19.211Z,12.92
2022-09-12T01:19:54.027Z,13.03
2022-09-12T01:25:09.450Z,12.96
2022-09-12T01:30:42.695Z,12.86
2022-09-12T01:35:54.190Z,12.95
2022-09-12T01:41:03.672Z,13.00
2022-09-12T01:46:17.450Z,12.97
2022-09-12T01:51:24.772Z,12.98
2022-09-12T01:56:32.296Z,13.00
2022-09-12T02:01:42.048Z,13.01
2022-09-12T02:06:49.320Z,12.96
2022-09-12T02:11:56.768Z,12.87
2022-09-12T02:17:07.617Z,12.85
2022-09-12T02:22:16.631Z,12.84
2022-09-12T02:27:24.781Z,12.82
2022-09-12T02:32:36.015Z,12.83
2022-09-12T02:37:54.003Z,12.81
2022-09-12T02:42:57.542Z,12.80
2022-09-12T02:48:07.228Z,12.82
2022-09-12T02:53:11.531Z,12.75
2022-09-12T02:58:18.149Z,12.71
2022-09-12T03:03:43.272Z,12.74
2022-09-12T03:09:01.695Z,12.66
2022-09-12T03:14:18.670Z,12.72
2022-09-12T03:19:30.340Z,12.69
2022-09-12T03:24:38.530Z,12.66
2022-09-12T03:29:43.128Z,12.51
2022-09-12T03:34:47.481Z,12.52
2022-09-12T03:39:50.474Z,12.53
2022-09-12T03:44:53.393Z,12.46
2022-09-12T03:49:57.641Z,12.55
2022-09-12T03:55:00.541Z,12.57
2022-09-12T04:00:03.780Z,12.54
2022-09-12T04:05:28.117Z,12.56
2022-09-12T04:10:31.009Z,12.53
2022-09-12T04:15:33.980Z,12.43
2022-09-12T04:20:38.913Z,12.48
2022-09-12T04:25:41.932Z,12.47
2022-09-12T04:30:44.882Z,12.47
2022-09-12T04:35:50.373Z,12.40
2022-09-12T04:40:53.306Z,12.46
2022-09-12T04:45:56.393Z,12.51
2022-09-12T04:51:10.024Z,12.62
2022-09-12T04:56:13.377Z,12.61
2022-09-12T05:01:18.869Z,12.63
2022-09-12T05:06:25.338Z,12.67
2022-09-12T05:11:53.073Z,12.74
2022-09-12T05:16:53.957Z,12.77
2022-09-12T05:21:58.876Z,12.81
2022-09-12T05:27:03.423Z,12.88
2022-09-12T05:32:06.524Z,13.02
2022-09-12T05:37:10.817Z,13.08
2022-09-12T05:42:14.341Z,13.15
2022-09-12T05:47:18.087Z,13.11
2022-09-12T05:52:22.335Z,13.23
2022-09-12T05:57:25.328Z,13.50
2022-09-12T06:02:28.508Z,13.59
2022-09-12T06:07:33.043Z,13.78
2022-09-12T06:12:35.958Z,13.60
2022-09-12T06:17:38.837Z,13.68
2022-09-12T06:22:43.132Z,13.81
2022-09-12T06:27:47.558Z,13.68
2022-09-12T06:32:50.520Z,13.91
2022-09-12T06:37:54.792Z,14.06
2022-09-12T06:42:57.680Z,14.23
2022-09-12T06:48:09.367Z,14.24
2022-09-12T06:53:13.639Z,14.40
2022-09-12T06:58:16.624Z,14.31
2022-09-12T07:03:19.867Z,14.59
2022-09-12T07:08:24.406Z,14.56
2022-09-12T07:13:27.364Z,14.65
2022-09-12T07:18:31.037Z,14.83
2022-09-12T07:23:35.407Z,14.94
2022-09-12T07:28:38.453Z,14.72
2022-09-12T07:33:43.015Z,14.84
2022-09-12T07:38:47.650Z,14.40
2022-09-12T07:43:53.580Z,14.23
2022-09-12T07:48:58.609Z,14.18
2022-09-12T07:54:03.644Z,13.84
2022-09-12T07:59:06.776Z,14.45
2022-09-12T08:04:09.902Z,14.18
2022-09-12T08:09:15.513Z,14.50
2022-09-12T08:14:18.581Z,16.03
2022-09-12T08:19:22.775Z,17.87
2022-09-12T08:24:27.275Z,16.84
2022-09-12T08:29:30.227Z,15.81
2022-09-12T08:34:33.135Z,16.14
2022-09-12T08:39:37.526Z,15.30
2022-09-12T08:45:05.757Z,14.73
2022-09-12T08:50:16.453Z,15.88
2022-09-12T08:55:28.843Z,17.88
2022-09-12T09:00:40.501Z,17.95
2022-09-12T09:05:50.182Z,18.85
2022-09-12T09:11:04.576Z,18.99
2022-09-12T09:16:13.314Z,17.78
2022-09-12T09:21:24.648Z,16.69
2022-09-12T09:26:37.072Z,16.85
2022-09-12T09:31:42.549Z,18.61
2022-09-12T09:36:51.657Z,18.30
2022-09-12T09:42:10.443Z,17.46
2022-09-12T09:47:13.831Z,17.47
2022-09-12T09:52:22.184Z,16.67
2022-09-12T09:57:44.750Z,18.26
2022-09-12T10:03:02.911Z,20.22
2022-09-12T10:08:08.190Z,19.12
2022-09-12T10:13:26.353Z,18.80
2022-09-12T10:18:42.263Z,17.92
2022-09-12T10:23:46.286Z,16.61
2022-09-12T10:28:54.135Z,18.16
2022-09-12T10:34:00.970Z,19.79
2022-09-12T10:39:05.431Z,20.02
2022-09-12T10:44:16.929Z,19.34
2022-09-12T10:49:27.074Z,19.96
2022-09-12T10:54:30.216Z,18.53
2022-09-12T10:59:46.531Z,19.46
2022-09-12T11:04:56.685Z,19.89
2022-09-12T11:10:07.367Z,19.67
2022-09-12T11:15:30.680Z,18.40
2022-09-12T11:21:07.459Z,18.89
2022-09-12T11:26:24.870Z,18.76
2022-09-12T11:31:55.599Z,18.34
2022-09-12T11:37:18.042Z,18.83
2022-09-12T11:42:27.492Z,18.62
2022-09-12T11:47:35.778Z,19.83
2022-09-12T11:52:40.691Z,19.96
2022-09-12T11:57:46.870Z,19.89
2022-09-12T12:03:02.571Z,20.52
2022-09-12T12:08:06.853Z,20.45
2022-09-12T12:13:18.094Z,20.08
2022-09-12T12:18:26.585Z,20.20
2022-09-12T12:23:32.354Z,20.36
2022-09-12T12:28:58.886Z,19.92
2022-09-12T12:34:27.767Z,18.63
2022-09-12T12:40:04.977Z,19.23
2022-09-12T12:45:50.494Z,20.15
2022-09-12T12:50:54.886Z,19.40
2022-09-12T12:55:58.807Z,19.24
2022-09-12T13:01:12.068Z,20.12
2022-09-12T13:06:32.715Z,20.17
2022-09-12T13:11:38.580Z,20.02
2022-09-12T13:16:55.268Z,19.52
2022-09-12T13:22:02.572Z,19.11
2022-09-12T13:27:18.392Z,19.95
2022-09-12T13:32:21.348Z,19.67
2022-09-12T13:37:41.342Z,19.18
2022-09-12T13:50:03.609Z,18.42
2022-09-12T13:55:19.661Z,19.21
2022-09-12T14:00:22.595Z,18.47
2022-09-12T14:05:27.298Z,19.28
2022-09-12T14:10:34.983Z,18.57
2022-09-12T14:15:39.239Z,19.62
2022-09-12T14:20:42.990Z,19.33
2022-09-12T14:25:48.047Z,20.07
2022-09-12T14:31:03.079Z,20.07
2022-09-12T14:36:13.191Z,19.37
2022-09-12T14:41:25.030Z,19.64
2022-09-12T14:46:31.747Z,19.79
2022-09-12T14:51:38.373Z,19.17
2022-09-12T14:56:44.392Z,19.18
2022-09-12T15:01:47.383Z,18.69
2022-09-12T15:06:50.339Z,18.48
2022-09-12T15:11:54.908Z,18.98
2022-09-12T15:16:57.831Z,18.97
2022-09-12T15:22:00.899Z,18.26
2022-09-12T15:27:10.199Z,18.25
2022-09-12T15:32:25.174Z,18.51
2022-09-12T15:37:28.456Z,18.95
2022-09-12T15:42:32.767Z,18.37
2022-09-12T15:47:35.696Z,18.66
2022-09-12T15:52:39.233Z,18.36
2022-09-12T15:57:43.636Z,18.40
2022-09-12T16:02:47.440Z,18.52
2022-09-12T16:07:52.368Z,18.57
2022-09-12T16:12:57.100Z,18.56
2022-09-12T16:18:00.029Z,18.50
2022-09-12T16:23:02.985Z,18.36
2022-09-12T16:28:07.760Z,18.26
2022-09-12T16:33:10.706Z,18.09
2022-09-12T16:38:13.712Z,18.04
2022-09-12T16:43:18.428Z,17.95
2022-09-12T16:48:21.468Z,17.93
2022-09-12T16:53:24.441Z,17.86
2022-09-12T16:58:29.257Z,17.73
2022-09-12T17:03:32.458Z,17.64
2022-09-12T17:08:37.012Z,17.50
2022-09-12T17:14:03.094Z,17.35
2022-09-12T17:19:06.235Z,17.25
2022-09-12T17:24:09.194Z,17.06
2022-09-12T17:29:14.264Z,16.99
2022-09-12T17:34:17.923Z,16.89
2022-09-12T17:39:21.229Z,16.78
2022-09-12T17:44:25.843Z,16.57
2022-09-12T17:49:29.002Z,16.50
2022-09-12T17:54:32.031Z,16.51
2022-09-12T17:59:36.310Z,16.50
2022-09-12T18:04:39.301Z,16.20
2022-09-12T18:09:42.441Z,16.20
2022-09-12T18:14:46.862Z,16.26
2022-09-12T18:19:53.824Z,16.29
2022-09-12T18:24:56.972Z,16.08
2022-09-12T18:30:20.002Z,16.07
2022-09-12T18:35:25.587Z,15.90
2022-09-12T18:40:28.810Z,15.76
2022-09-12T18:45:33.295Z,15.69
2022-09-12T18:50:36.365Z,15.55
2022-09-12T18:55:42.465Z,15.36
2022-09-12T19:00:48.448Z,15.17
2022-09-12T19:05:51.534Z,15.08
2022-09-12T19:10:57.784Z,15.12
2022-09-12T19:16:03.254Z,14.90
2022-09-12T19:21:09.916Z,14.79
2022-09-12T19:26:14.903Z,14.67
2022-09-12T19:31:20.758Z,14.56
2022-09-12T19:41:46.896Z,14.32
2022-09-12T19:46:51.280Z,14.27
2022-09-12T19:51:54.242Z,14.24
2022-09-12T19:56:57.195Z,13.91
2022-09-12T20:02:01.589Z,13.90
2022-09-12T20:07:04.620Z,13.86
2022-09-12T20:12:08.680Z,13.66
2022-09-12T20:17:13.003Z,13.59
2022-09-12T20:22:15.900Z,13.38
2022-09-12T20:27:18.909Z,13.42
2022-09-12T20:32:23.265Z,13.41
2022-09-12T20:37:26.296Z,13.27
2022-09-12T20:42:30.326Z,13.13
2022-09-12T20:47:34.623Z,13.08
2022-09-12T20:52:37.536Z,12.95
2022-09-12T20:57:40.470Z,12.92
2022-09-12T21:02:44.811Z,12.91
2022-09-12T21:07:47.738Z,12.77
2022-09-12T21:12:50.652Z,12.62
2022-09-12T21:17:55.020Z,12.60
2022-09-12T21:22:57.950Z,12.46
2022-09-12T21:28:00.875Z,12.43
2022-09-12T21:33:05.514Z,12.35
2022-09-12T21:38:09.387Z,12.32
2022-09-12T21:43:13.259Z,12.20
2022-09-12T21:48:17.636Z,12.21
2022-09-12T21:53:20.574Z,12.18
2022-09-12T21:58:23.456Z,12.05
2022-09-12T22:03:28.448Z,11.82
2022-09-12T22:08:32.619Z,11.90
2022-09-12T22:13:35.619Z,11.72
2022-09-12T22:18:40.184Z,11.77
2022-09-12T22:24:01.014Z,11.82
2022-09-12T22:29:04.452Z,11.79
2022-09-12T22:34:08.767Z,11.54
2022-09-12T22:39:11.740Z,11.45
2022-09-12T22:44:14.777Z,11.41
2022-09-12T22:49:19.038Z,11.35
2022-09-12T22:54:21.942Z,11.28
2022-09-12T22:59:24.865Z,11.29
2022-09-12T23:04:29.156Z,11.17
2022-09-12T23:09:35.279Z,11.13
2022-09-12T23:14:38.533Z,11.17
2022-09-12T23:19:42.811Z,10.93
2022-09-12T23:24:45.929Z,11.08
2022-09-12T23:29:52.378Z,11.12
2022-09-12T23:34:56.671Z,10.82
2022-09-12T23:39:59.645Z,10.96
2022-09-12T23:45:02.610Z,10.88
2022-09-12T23:50:07.789Z,10.55
2022-09-12T23:55:10.883Z,10.64
